sensor_id;sensor_type;location;lat;lon;timestamp;temperature;humidity
45785;DHT22;31489;51.404;5.474;2023-02-26T00:01:26;6.60;53.10
45785;DHT22;31489;51.404;5.474;2023-02-26T00:03:54;6.60;53.20
45785;DHT22;31489;51.404;5.474;2023-02-26T00:06:21;6.60;53.20
45785;DHT22;31489;51.404;5.474;2023-02-26T00:08:47;6.60;53.30
45785;DHT22;31489;51.404;5.474;2023-02-26T00:11:13;6.50;53.30
45785;DHT22;31489;51.404;5.474;2023-02-26T00:13:43;6.50;53.40
45785;DHT22;31489;51.404;5.474;2023-02-26T00:16:31;6.50;53.60
45785;DHT22;31489;51.404;5.474;2023-02-26T00:18:59;6.50;53.70
45785;DHT22;31489;51.404;5.474;2023-02-26T00:21:27;6.50;53.70
45785;DHT22;31489;51.404;5.474;2023-02-26T00:23:53;6.40;53.70
45785;DHT22;31489;51.404;5.474;2023-02-26T00:26:20;6.40;53.80
45785;DHT22;31489;51.404;5.474;2023-02-26T00:28:46;6.40;53.80
45785;DHT22;31489;51.404;5.474;2023-02-26T00:31:15;6.40;54.00
45785;DHT22;31489;51.404;5.474;2023-02-26T00:33:42;6.40;54.10
45785;DHT22;31489;51.404;5.474;2023-02-26T00:38:44;6.40;54.30
45785;DHT22;31489;51.404;5.474;2023-02-26T00:41:11;6.40;54.40
45785;DHT22;31489;51.404;5.474;2023-02-26T00:43:37;6.40;54.50
45785;DHT22;31489;51.404;5.474;2023-02-26T00:51:16;6.40;54.70
45785;DHT22;31489;51.404;5.474;2023-02-26T00:53:51;6.40;55.00
45785;DHT22;31489;51.404;5.474;2023-02-26T00:56:17;6.50;55.00
45785;DHT22;31489;51.404;5.474;2023-02-26T00:58:43;6.50;55.10
45785;DHT22;31489;51.404;5.474;2023-02-26T01:01:09;6.50;55.10
45785;DHT22;31489;51.404;5.474;2023-02-26T01:03:35;6.50;55.20
45785;DHT22;31489;51.404;5.474;2023-02-26T01:06:01;6.60;55.30
45785;DHT22;31489;51.404;5.474;2023-02-26T01:08:33;6.60;55.30
45785;DHT22;31489;51.404;5.474;2023-02-26T01:11:01;6.60;55.20
45785;DHT22;31489;51.404;5.474;2023-02-26T01:13:27;6.60;55.10
45785;DHT22;31489;51.404;5.474;2023-02-26T01:16:00;6.70;55.10
45785;DHT22;31489;51.404;5.474;2023-02-26T01:18:32;6.60;55.00
45785;DHT22;31489;51.404;5.474;2023-02-26T01:21:04;6.70;55.00
45785;DHT22;31489;51.404;5.474;2023-02-26T01:23:37;6.60;54.90
45785;DHT22;31489;51.404;5.474;2023-02-26T01:26:27;6.60;55.00
45785;DHT22;31489;51.404;5.474;2023-02-26T01:28:54;6.60;55.10
45785;DHT22;31489;51.404;5.474;2023-02-26T01:34:25;6.60;55.30
45785;DHT22;31489;51.404;5.474;2023-02-26T01:36:59;6.60;55.30
45785;DHT22;31489;51.404;5.474;2023-02-26T01:40:15;6.60;55.50
45785;DHT22;31489;51.404;5.474;2023-02-26T01:42:50;6.60;55.60
45785;DHT22;31489;51.404;5.474;2023-02-26T01:45:28;6.60;55.40
45785;DHT22;31489;51.404;5.474;2023-02-26T01:48:10;6.50;55.50
45785;DHT22;31489;51.404;5.474;2023-02-26T01:50:43;6.50;55.50
45785;DHT22;31489;51.404;5.474;2023-02-26T01:53:24;6.50;55.40
45785;DHT22;31489;51.404;5.474;2023-02-26T01:55:56;6.50;55.40
45785;DHT22;31489;51.404;5.474;2023-02-26T01:58:24;6.40;55.40
45785;DHT22;31489;51.404;5.474;2023-02-26T02:00:50;6.50;55.60
45785;DHT22;31489;51.404;5.474;2023-02-26T02:03:18;6.40;55.60
45785;DHT22;31489;51.404;5.474;2023-02-26T02:05:50;6.40;55.60
45785;DHT22;31489;51.404;5.474;2023-02-26T02:08:16;6.40;55.60
45785;DHT22;31489;51.404;5.474;2023-02-26T02:10:45;6.40;55.60
45785;DHT22;31489;51.404;5.474;2023-02-26T02:13:24;6.30;55.60
45785;DHT22;31489;51.404;5.474;2023-02-26T02:18:52;6.30;55.80
45785;DHT22;31489;51.404;5.474;2023-02-26T02:24:27;6.20;56.20
45785;DHT22;31489;51.404;5.474;2023-02-26T02:35:11;6.20;56.20
45785;DHT22;31489;51.404;5.474;2023-02-26T02:40:28;6.10;56.30
45785;DHT22;31489;51.404;5.474;2023-02-26T02:43:20;6.10;56.20
45785;DHT22;31489;51.404;5.474;2023-02-26T02:48:23;6.10;56.20
45785;DHT22;31489;51.404;5.474;2023-02-26T02:51:27;6.00;56.10
45785;DHT22;31489;51.404;5.474;2023-02-26T02:56:30;6.00;56.20
45785;DHT22;31489;51.404;5.474;2023-02-26T02:59:22;6.00;56.10
45785;DHT22;31489;51.404;5.474;2023-02-26T03:04:41;5.90;56.30
45785;DHT22;31489;51.404;5.474;2023-02-26T03:07:08;5.90;56.30
45785;DHT22;31489;51.404;5.474;2023-02-26T03:09:33;5.90;56.30
45785;DHT22;31489;51.404;5.474;2023-02-26T03:11:59;5.90;56.40
45785;DHT22;31489;51.404;5.474;2023-02-26T03:14:25;5.80;56.20
45785;DHT22;31489;51.404;5.474;2023-02-26T03:22:38;5.80;56.20
45785;DHT22;31489;51.404;5.474;2023-02-26T03:25:13;5.80;56.00
45785;DHT22;31489;51.404;5.474;2023-02-26T03:30:47;5.70;56.00
45785;DHT22;31489;51.404;5.474;2023-02-26T03:36:09;5.70;56.00
45785;DHT22;31489;51.404;5.474;2023-02-26T03:38:48;5.70;55.90
45785;DHT22;31489;51.404;5.474;2023-02-26T03:41:20;5.70;55.90
45785;DHT22;31489;51.404;5.474;2023-02-26T03:43:55;5.70;56.00
45785;DHT22;31489;51.404;5.474;2023-02-26T03:46:38;5.70;56.00
45785;DHT22;31489;51.404;5.474;2023-02-26T03:49:27;5.70;55.70
45785;DHT22;31489;51.404;5.474;2023-02-26T03:51:54;5.70;55.80
45785;DHT22;31489;51.404;5.474;2023-02-26T03:54:31;5.70;55.90
45785;DHT22;31489;51.404;5.474;2023-02-26T03:56:57;5.60;56.00
45785;DHT22;31489;51.404;5.474;2023-02-26T03:59:23;5.60;56.10
45785;DHT22;31489;51.404;5.474;2023-02-26T04:02:14;5.60;55.90
45785;DHT22;31489;51.404;5.474;2023-02-26T04:04:43;5.60;55.80
45785;DHT22;31489;51.404;5.474;2023-02-26T04:07:12;5.50;56.00
45785;DHT22;31489;51.404;5.474;2023-02-26T04:09:46;5.50;56.00
45785;DHT22;31489;51.404;5.474;2023-02-26T04:12:13;5.50;56.20
45785;DHT22;31489;51.404;5.474;2023-02-26T04:14:39;5.50;56.20
45785;DHT22;31489;51.404;5.474;2023-02-26T04:17:05;5.50;56.30
45785;DHT22;31489;51.404;5.474;2023-02-26T04:19:30;5.50;56.20
45785;DHT22;31489;51.404;5.474;2023-02-26T04:21:56;5.50;56.20
45785;DHT22;31489;51.404;5.474;2023-02-26T04:24:22;5.40;56.20
45785;DHT22;31489;51.404;5.474;2023-02-26T04:26:48;5.40;56.20
45785;DHT22;31489;51.404;5.474;2023-02-26T04:29:14;5.40;56.30
45785;DHT22;31489;51.404;5.474;2023-02-26T04:31:40;5.40;56.20
45785;DHT22;31489;51.404;5.474;2023-02-26T04:34:06;5.40;56.10
45785;DHT22;31489;51.404;5.474;2023-02-26T04:36:32;5.40;56.10
45785;DHT22;31489;51.404;5.474;2023-02-26T04:38:58;5.40;56.10
45785;DHT22;31489;51.404;5.474;2023-02-26T04:41:23;5.40;56.10
45785;DHT22;31489;51.404;5.474;2023-02-26T04:43:49;5.30;56.10
45785;DHT22;31489;51.404;5.474;2023-02-26T04:46:15;5.40;56.20
45785;DHT22;31489;51.404;5.474;2023-02-26T04:48:40;5.40;56.20
45785;DHT22;31489;51.404;5.474;2023-02-26T04:51:06;5.30;56.20
45785;DHT22;31489;51.404;5.474;2023-02-26T04:53:32;5.30;56.30
45785;DHT22;31489;51.404;5.474;2023-02-26T04:55:58;5.30;56.30
45785;DHT22;31489;51.404;5.474;2023-02-26T04:58:24;5.30;56.50
45785;DHT22;31489;51.404;5.474;2023-02-26T05:00:50;5.30;56.40
45785;DHT22;31489;51.404;5.474;2023-02-26T05:03:18;5.20;56.30
45785;DHT22;31489;51.404;5.474;2023-02-26T05:05:43;5.20;56.20
45785;DHT22;31489;51.404;5.474;2023-02-26T05:08:10;5.20;56.10
45785;DHT22;31489;51.404;5.474;2023-02-26T05:10:36;5.20;56.20
45785;DHT22;31489;51.404;5.474;2023-02-26T05:13:01;5.20;56.20
45785;DHT22;31489;51.404;5.474;2023-02-26T05:15:27;5.10;56.30
45785;DHT22;31489;51.404;5.474;2023-02-26T05:17:53;5.20;56.20
45785;DHT22;31489;51.404;5.474;2023-02-26T05:20:18;5.20;56.30
45785;DHT22;31489;51.404;5.474;2023-02-26T05:22:44;5.10;56.10
45785;DHT22;31489;51.404;5.474;2023-02-26T05:25:10;5.10;56.10
45785;DHT22;31489;51.404;5.474;2023-02-26T05:27:40;5.10;56.00
45785;DHT22;31489;51.404;5.474;2023-02-26T05:30:07;5.10;56.20
45785;DHT22;31489;51.404;5.474;2023-02-26T05:32:33;5.10;56.10
45785;DHT22;31489;51.404;5.474;2023-02-26T05:34:59;5.10;56.30
45785;DHT22;31489;51.404;5.474;2023-02-26T05:37:24;5.10;56.00
45785;DHT22;31489;51.404;5.474;2023-02-26T05:39:50;5.10;56.00
45785;DHT22;31489;51.404;5.474;2023-02-26T05:42:16;5.10;55.80
45785;DHT22;31489;51.404;5.474;2023-02-26T05:44:41;5.10;55.80
45785;DHT22;31489;51.404;5.474;2023-02-26T05:47:07;5.10;56.00
45785;DHT22;31489;51.404;5.474;2023-02-26T05:49:33;5.10;56.00
45785;DHT22;31489;51.404;5.474;2023-02-26T05:52:02;5.00;55.70
45785;DHT22;31489;51.404;5.474;2023-02-26T05:54:27;5.00;55.80
45785;DHT22;31489;51.404;5.474;2023-02-26T05:56:54;5.00;56.00
45785;DHT22;31489;51.404;5.474;2023-02-26T05:59:20;5.00;56.00
45785;DHT22;31489;51.404;5.474;2023-02-26T06:01:46;5.00;55.90
45785;DHT22;31489;51.404;5.474;2023-02-26T06:04:11;5.00;55.80
45785;DHT22;31489;51.404;5.474;2023-02-26T06:06:37;4.90;55.40
45785;DHT22;31489;51.404;5.474;2023-02-26T06:09:03;5.00;55.40
45785;DHT22;31489;51.404;5.474;2023-02-26T06:11:29;4.90;55.50
45785;DHT22;31489;51.404;5.474;2023-02-26T06:13:55;4.90;55.40
45785;DHT22;31489;51.404;5.474;2023-02-26T06:16:21;4.90;55.30
45785;DHT22;31489;51.404;5.474;2023-02-26T06:18:47;4.90;55.30
45785;DHT22;31489;51.404;5.474;2023-02-26T06:21:14;4.90;55.50
45785;DHT22;31489;51.404;5.474;2023-02-26T06:23:40;4.90;55.40
45785;DHT22;31489;51.404;5.474;2023-02-26T06:26:05;4.90;55.30
45785;DHT22;31489;51.404;5.474;2023-02-26T06:28:31;4.90;55.40
45785;DHT22;31489;51.404;5.474;2023-02-26T06:30:57;4.90;55.40
45785;DHT22;31489;51.404;5.474;2023-02-26T06:33:23;4.90;55.40
45785;DHT22;31489;51.404;5.474;2023-02-26T06:35:49;4.80;55.30
45785;DHT22;31489;51.404;5.474;2023-02-26T06:38:15;4.80;55.40
45785;DHT22;31489;51.404;5.474;2023-02-26T06:40:41;4.90;55.60
45785;DHT22;31489;51.404;5.474;2023-02-26T06:43:07;4.80;55.50
45785;DHT22;31489;51.404;5.474;2023-02-26T06:45:32;4.80;55.50
45785;DHT22;31489;51.404;5.474;2023-02-26T06:47:58;4.80;55.50
45785;DHT22;31489;51.404;5.474;2023-02-26T06:50:24;4.80;55.40
45785;DHT22;31489;51.404;5.474;2023-02-26T06:52:49;4.80;55.30
45785;DHT22;31489;51.404;5.474;2023-02-26T06:55:15;4.80;55.40
45785;DHT22;31489;51.404;5.474;2023-02-26T06:57:41;4.80;55.50
45785;DHT22;31489;51.404;5.474;2023-02-26T07:00:08;4.80;55.50
45785;DHT22;31489;51.404;5.474;2023-02-26T07:02:34;4.80;55.30
45785;DHT22;31489;51.404;5.474;2023-02-26T07:04:59;4.80;55.30
45785;DHT22;31489;51.404;5.474;2023-02-26T07:07:25;4.80;55.20
45785;DHT22;31489;51.404;5.474;2023-02-26T07:09:51;4.90;55.40
45785;DHT22;31489;51.404;5.474;2023-02-26T07:12:17;4.90;55.50
45785;DHT22;31489;51.404;5.474;2023-02-26T07:14:42;4.80;55.40
45785;DHT22;31489;51.404;5.474;2023-02-26T07:17:10;4.80;55.40
45785;DHT22;31489;51.404;5.474;2023-02-26T07:19:45;4.80;55.60
45785;DHT22;31489;51.404;5.474;2023-02-26T07:22:11;4.90;55.70
45785;DHT22;31489;51.404;5.474;2023-02-26T07:24:36;4.90;55.40
45785;DHT22;31489;51.404;5.474;2023-02-26T07:27:04;4.90;55.40
45785;DHT22;31489;51.404;5.474;2023-02-26T07:29:30;4.90;55.20
45785;DHT22;31489;51.404;5.474;2023-02-26T07:31:56;4.90;55.40
45785;DHT22;31489;51.404;5.474;2023-02-26T07:34:21;4.90;55.40
45785;DHT22;31489;51.404;5.474;2023-02-26T07:36:47;4.90;55.70
45785;DHT22;31489;51.404;5.474;2023-02-26T07:39:13;4.90;55.60
45785;DHT22;31489;51.404;5.474;2023-02-26T07:41:38;5.00;55.70
45785;DHT22;31489;51.404;5.474;2023-02-26T07:44:04;5.00;55.70
45785;DHT22;31489;51.404;5.474;2023-02-26T07:46:30;5.00;55.80
45785;DHT22;31489;51.404;5.474;2023-02-26T07:48:55;5.10;55.70
45785;DHT22;31489;51.404;5.474;2023-02-26T07:51:21;5.10;55.70
45785;DHT22;31489;51.404;5.474;2023-02-26T07:53:47;5.10;55.50
45785;DHT22;31489;51.404;5.474;2023-02-26T07:56:12;5.10;55.40
45785;DHT22;31489;51.404;5.474;2023-02-26T07:58:38;5.10;55.40
45785;DHT22;31489;51.404;5.474;2023-02-26T08:01:04;5.10;55.80
45785;DHT22;31489;51.404;5.474;2023-02-26T08:03:29;5.10;55.90
45785;DHT22;31489;51.404;5.474;2023-02-26T08:05:56;5.20;55.90
45785;DHT22;31489;51.404;5.474;2023-02-26T08:08:25;5.20;55.90
45785;DHT22;31489;51.404;5.474;2023-02-26T08:10:54;5.20;56.00
45785;DHT22;31489;51.404;5.474;2023-02-26T08:13:19;5.20;55.80
45785;DHT22;31489;51.404;5.474;2023-02-26T08:15:46;5.30;56.10
45785;DHT22;31489;51.404;5.474;2023-02-26T08:18:12;5.30;56.40
45785;DHT22;31489;51.404;5.474;2023-02-26T08:20:38;5.30;56.30
45785;DHT22;31489;51.404;5.474;2023-02-26T08:23:04;5.40;56.20
45785;DHT22;31489;51.404;5.474;2023-02-26T08:25:29;5.40;56.30
45785;DHT22;31489;51.404;5.474;2023-02-26T08:27:55;5.50;56.20
45785;DHT22;31489;51.404;5.474;2023-02-26T08:30:23;5.50;56.30
45785;DHT22;31489;51.404;5.474;2023-02-26T08:32:49;5.50;56.30
45785;DHT22;31489;51.404;5.474;2023-02-26T08:35:15;5.60;56.20
45785;DHT22;31489;51.404;5.474;2023-02-26T08:37:40;5.60;55.80
45785;DHT22;31489;51.404;5.474;2023-02-26T08:40:08;5.70;55.80
45785;DHT22;31489;51.404;5.474;2023-02-26T08:42:35;5.70;56.00
45785;DHT22;31489;51.404;5.474;2023-02-26T08:45:00;5.70;56.00
45785;DHT22;31489;51.404;5.474;2023-02-26T08:47:26;5.80;56.00
45785;DHT22;31489;51.404;5.474;2023-02-26T08:49:52;5.80;56.30
45785;DHT22;31489;51.404;5.474;2023-02-26T08:52:19;5.80;56.30
45785;DHT22;31489;51.404;5.474;2023-02-26T08:54:44;5.90;56.20
45785;DHT22;31489;51.404;5.474;2023-02-26T08:57:10;5.90;56.20
45785;DHT22;31489;51.404;5.474;2023-02-26T08:59:39;6.00;57.00
45785;DHT22;31489;51.404;5.474;2023-02-26T09:02:04;6.00;56.30
45785;DHT22;31489;51.404;5.474;2023-02-26T09:04:30;6.10;56.10
45785;DHT22;31489;51.404;5.474;2023-02-26T09:06:55;6.10;56.20
45785;DHT22;31489;51.404;5.474;2023-02-26T09:09:21;6.20;56.20
45785;DHT22;31489;51.404;5.474;2023-02-26T09:11:49;6.30;56.20
45785;DHT22;31489;51.404;5.474;2023-02-26T09:14:15;6.30;56.10
45785;DHT22;31489;51.404;5.474;2023-02-26T09:16:43;6.30;56.10
45785;DHT22;31489;51.404;5.474;2023-02-26T09:19:09;6.40;56.20
45785;DHT22;31489;51.404;5.474;2023-02-26T09:21:35;6.40;56.00
45785;DHT22;31489;51.404;5.474;2023-02-26T09:24:01;6.50;55.90
45785;DHT22;31489;51.404;5.474;2023-02-26T09:26:27;6.60;56.10
45785;DHT22;31489;51.404;5.474;2023-02-26T09:28:52;6.60;56.00
45785;DHT22;31489;51.404;5.474;2023-02-26T09:31:18;6.60;56.00
45785;DHT22;31489;51.404;5.474;2023-02-26T09:33:44;6.70;55.90
45785;DHT22;31489;51.404;5.474;2023-02-26T09:36:10;6.80;55.80
45785;DHT22;31489;51.404;5.474;2023-02-26T09:38:35;6.80;55.60
45785;DHT22;31489;51.404;5.474;2023-02-26T09:41:04;6.90;55.40
45785;DHT22;31489;51.404;5.474;2023-02-26T09:44:50;6.90;55.00
45785;DHT22;31489;51.404;5.474;2023-02-26T09:52:33;7.10;54.70
45785;DHT22;31489;51.404;5.474;2023-02-26T09:55:36;7.10;54.70
45785;DHT22;31489;51.404;5.474;2023-02-26T10:06:54;7.30;54.20
45785;DHT22;31489;51.404;5.474;2023-02-26T10:14:45;7.50;53.70
45785;DHT22;31489;51.404;5.474;2023-02-26T10:17:26;7.50;53.80
45785;DHT22;31489;51.404;5.474;2023-02-26T10:20:05;7.60;53.40
45785;DHT22;31489;51.404;5.474;2023-02-26T10:22:44;7.70;53.60
45785;DHT22;31489;51.404;5.474;2023-02-26T10:25:15;7.80;53.40
45785;DHT22;31489;51.404;5.474;2023-02-26T10:27:51;7.90;53.40
45785;DHT22;31489;51.404;5.474;2023-02-26T10:30:27;8.00;53.20
45785;DHT22;31489;51.404;5.474;2023-02-26T10:35:45;8.30;53.80
45785;DHT22;31489;51.404;5.474;2023-02-26T10:38:18;8.60;53.80
45785;DHT22;31489;51.404;5.474;2023-02-26T10:41:01;8.80;53.80
45785;DHT22;31489;51.404;5.474;2023-02-26T10:43:52;9.10;52.10
45785;DHT22;31489;51.404;5.474;2023-02-26T10:46:33;9.30;52.10
45785;DHT22;31489;51.404;5.474;2023-02-26T10:49:25;9.50;51.80
45785;DHT22;31489;51.404;5.474;2023-02-26T10:52:04;9.70;52.50
45785;DHT22;31489;51.404;5.474;2023-02-26T10:54:40;9.90;51.20
45785;DHT22;31489;51.404;5.474;2023-02-26T10:58:05;10.10;51.90
45785;DHT22;31489;51.404;5.474;2023-02-26T11:00:18;10.20;50.40
45785;DHT22;31489;51.404;5.474;2023-02-26T11:02:47;10.40;50.10
45785;DHT22;31489;51.404;5.474;2023-02-26T11:05:26;10.50;49.80
45785;DHT22;31489;51.404;5.474;2023-02-26T11:08:02;10.50;48.50
45785;DHT22;31489;51.404;5.474;2023-02-26T11:10:47;10.50;49.00
45785;DHT22;31489;51.404;5.474;2023-02-26T11:13:14;10.60;49.30
45785;DHT22;31489;51.404;5.474;2023-02-26T11:15:41;10.70;49.60
45785;DHT22;31489;51.404;5.474;2023-02-26T11:18:13;10.80;49.10
45785;DHT22;31489;51.404;5.474;2023-02-26T11:21:26;10.90;48.50
45785;DHT22;31489;51.404;5.474;2023-02-26T11:24:39;11.20;48.60
45785;DHT22;31489;51.404;5.474;2023-02-26T11:26:48;11.50;49.30
45785;DHT22;31489;51.404;5.474;2023-02-26T11:29:19;11.90;50.30
45785;DHT22;31489;51.404;5.474;2023-02-26T11:31:52;12.40;50.30
45785;DHT22;31489;51.404;5.474;2023-02-26T11:34:24;13.00;49.20
45785;DHT22;31489;51.404;5.474;2023-02-26T11:36:52;13.60;49.20
45785;DHT22;31489;51.404;5.474;2023-02-26T11:39:23;14.20;49.10
45785;DHT22;31489;51.404;5.474;2023-02-26T11:41:52;14.80;48.30
45785;DHT22;31489;51.404;5.474;2023-02-26T11:46:56;15.90;45.70
45785;DHT22;31489;51.404;5.474;2023-02-26T11:49:26;16.40;45.20
45785;DHT22;31489;51.404;5.474;2023-02-26T11:52:20;16.80;43.70
45785;DHT22;31489;51.404;5.474;2023-02-26T11:54:48;17.20;42.50
45785;DHT22;31489;51.404;5.474;2023-02-26T11:57:22;17.50;42.00
45785;DHT22;31489;51.404;5.474;2023-02-26T11:59:51;17.80;40.60
45785;DHT22;31489;51.404;5.474;2023-02-26T12:02:20;17.90;39.50
45785;DHT22;31489;51.404;5.474;2023-02-26T12:04:49;18.00;38.60
45785;DHT22;31489;51.404;5.474;2023-02-26T12:07:23;18.10;38.40
45785;DHT22;31489;51.404;5.474;2023-02-26T12:09:49;18.20;37.30
45785;DHT22;31489;51.404;5.474;2023-02-26T12:18:24;18.40;36.80
45785;DHT22;31489;51.404;5.474;2023-02-26T12:26:17;18.60;36.00
45785;DHT22;31489;51.404;5.474;2023-02-26T12:29:05;18.70;35.10
45785;DHT22;31489;51.404;5.474;2023-02-26T12:43:14;18.80;34.40
45785;DHT22;31489;51.404;5.474;2023-02-26T12:49:21;18.50;34.10
45785;DHT22;31489;51.404;5.474;2023-02-26T13:11:58;17.20;34.40
45785;DHT22;31489;51.404;5.474;2023-02-26T13:18:11;17.20;34.60
45785;DHT22;31489;51.404;5.474;2023-02-26T13:20:44;17.20;34.80
45785;DHT22;31489;51.404;5.474;2023-02-26T13:23:16;17.20;34.10
45785;DHT22;31489;51.404;5.474;2023-02-26T13:26:22;17.10;34.00
45785;DHT22;31489;51.404;5.474;2023-02-26T13:31:24;17.20;34.40
45785;DHT22;31489;51.404;5.474;2023-02-26T13:33:53;17.30;33.40
45785;DHT22;31489;51.404;5.474;2023-02-26T13:36:21;17.40;33.80
45785;DHT22;31489;51.404;5.474;2023-02-26T13:47:12;17.50;33.20
45785;DHT22;31489;51.404;5.474;2023-02-26T13:52:30;17.50;32.80
45785;DHT22;31489;51.404;5.474;2023-02-26T13:54:57;17.40;32.70
45785;DHT22;31489;51.404;5.474;2023-02-26T13:57:43;17.30;33.20
45785;DHT22;31489;51.404;5.474;2023-02-26T14:00:32;17.30;32.50
45785;DHT22;31489;51.404;5.474;2023-02-26T14:03:28;17.20;32.90
45785;DHT22;31489;51.404;5.474;2023-02-26T14:08:44;17.20;32.80
45785;DHT22;31489;51.404;5.474;2023-02-26T14:13:42;17.20;32.50
45785;DHT22;31489;51.404;5.474;2023-02-26T14:16:27;17.10;33.10
45785;DHT22;31489;51.404;5.474;2023-02-26T14:19:03;17.10;32.90
45785;DHT22;31489;51.404;5.474;2023-02-26T14:24:28;17.00;32.80
45785;DHT22;31489;51.404;5.474;2023-02-26T14:27:21;16.90;32.90
45785;DHT22;31489;51.404;5.474;2023-02-26T14:30:05;16.80;32.40
45785;DHT22;31489;51.404;5.474;2023-02-26T14:35:26;16.50;32.70
45785;DHT22;31489;51.404;5.474;2023-02-26T14:38:23;16.40;32.50
45785;DHT22;31489;51.404;5.474;2023-02-26T14:40:56;16.30;32.80
45785;DHT22;31489;51.404;5.474;2023-02-26T14:43:35;16.20;32.70
45785;DHT22;31489;51.404;5.474;2023-02-26T14:46:02;16.10;32.80
45785;DHT22;31489;51.404;5.474;2023-02-26T14:48:29;16.00;33.30
45785;DHT22;31489;51.404;5.474;2023-02-26T14:51:19;15.90;33.00
45785;DHT22;31489;51.404;5.474;2023-02-26T14:59:31;15.80;33.20
45785;DHT22;31489;51.404;5.474;2023-02-26T15:08:10;15.80;33.30
45785;DHT22;31489;51.404;5.474;2023-02-26T15:13:19;15.70;33.30
45785;DHT22;31489;51.404;5.474;2023-02-26T15:15:53;15.60;33.00
45785;DHT22;31489;51.404;5.474;2023-02-26T15:24:10;15.20;33.10
45785;DHT22;31489;51.404;5.474;2023-02-26T15:26:52;15.00;33.30
45785;DHT22;31489;51.404;5.474;2023-02-26T15:29:21;14.70;33.30
45785;DHT22;31489;51.404;5.474;2023-02-26T15:31:54;14.60;33.60
45785;DHT22;31489;51.404;5.474;2023-02-26T15:34:20;14.40;33.60
45785;DHT22;31489;51.404;5.474;2023-02-26T15:36:49;14.20;33.80
45785;DHT22;31489;51.404;5.474;2023-02-26T15:39:17;14.10;33.70
45785;DHT22;31489;51.404;5.474;2023-02-26T15:41:47;13.90;34.00
45785;DHT22;31489;51.404;5.474;2023-02-26T15:44:27;13.80;33.80
45785;DHT22;31489;51.404;5.474;2023-02-26T15:46:59;13.60;33.80
45785;DHT22;31489;51.404;5.474;2023-02-26T15:51:55;13.30;34.10
45785;DHT22;31489;51.404;5.474;2023-02-26T15:54:23;13.20;34.50
45785;DHT22;31489;51.404;5.474;2023-02-26T15:56:50;13.10;34.60
45785;DHT22;31489;51.404;5.474;2023-02-26T15:59:23;13.00;34.80
45785;DHT22;31489;51.404;5.474;2023-02-26T16:01:51;12.90;34.80
45785;DHT22;31489;51.404;5.474;2023-02-26T16:04:21;12.80;35.10
45785;DHT22;31489;51.404;5.474;2023-02-26T16:06:57;12.70;35.30
45785;DHT22;31489;51.404;5.474;2023-02-26T16:09:28;12.50;35.20
45785;DHT22;31489;51.404;5.474;2023-02-26T16:11:57;12.50;35.50
45785;DHT22;31489;51.404;5.474;2023-02-26T16:14:28;12.40;35.60
45785;DHT22;31489;51.404;5.474;2023-02-26T16:16:55;12.30;35.70
45785;DHT22;31489;51.404;5.474;2023-02-26T16:19:41;12.20;35.90
45785;DHT22;31489;51.404;5.474;2023-02-26T16:22:25;12.20;35.90
45785;DHT22;31489;51.404;5.474;2023-02-26T16:27:40;12.00;35.80
45785;DHT22;31489;51.404;5.474;2023-02-26T16:30:15;12.00;36.20
45785;DHT22;31489;51.404;5.474;2023-02-26T16:32:43;11.90;36.10
45785;DHT22;31489;51.404;5.474;2023-02-26T16:35:20;11.80;36.20
45785;DHT22;31489;51.404;5.474;2023-02-26T16:37:52;11.70;36.00
45785;DHT22;31489;51.404;5.474;2023-02-26T16:40:36;11.70;36.40
45785;DHT22;31489;51.404;5.474;2023-02-26T16:43:28;11.60;36.50
45785;DHT22;31489;51.404;5.474;2023-02-26T16:45:55;11.50;36.60
45785;DHT22;31489;51.404;5.474;2023-02-26T16:48:25;11.50;37.00
45785;DHT22;31489;51.404;5.474;2023-02-26T16:53:45;11.30;37.30
45785;DHT22;31489;51.404;5.474;2023-02-26T16:56:16;11.30;37.50
45785;DHT22;31489;51.404;5.474;2023-02-26T16:58:45;11.20;37.20
45785;DHT22;31489;51.404;5.474;2023-02-26T17:01:15;11.20;37.60
45785;DHT22;31489;51.404;5.474;2023-02-26T17:03:45;11.20;37.80
45785;DHT22;31489;51.404;5.474;2023-02-26T17:06:15;11.20;37.70
45785;DHT22;31489;51.404;5.474;2023-02-26T17:08:50;11.20;37.60
45785;DHT22;31489;51.404;5.474;2023-02-26T17:11:26;11.20;38.10
45785;DHT22;31489;51.404;5.474;2023-02-26T17:14:23;11.20;37.90
45785;DHT22;31489;51.404;5.474;2023-02-26T17:16:50;11.10;37.90
45785;DHT22;31489;51.404;5.474;2023-02-26T17:19:17;11.10;38.10
45785;DHT22;31489;51.404;5.474;2023-02-26T17:21:48;11.10;38.30
45785;DHT22;31489;51.404;5.474;2023-02-26T17:24:20;11.00;38.30
45785;DHT22;31489;51.404;5.474;2023-02-26T17:26:46;11.00;38.20
45785;DHT22;31489;51.404;5.474;2023-02-26T17:29:21;10.90;38.30
45785;DHT22;31489;51.404;5.474;2023-02-26T17:31:55;10.90;38.70
45785;DHT22;31489;51.404;5.474;2023-02-26T17:34:24;10.90;38.50
45785;DHT22;31489;51.404;5.474;2023-02-26T17:36:54;10.80;38.50
45785;DHT22;31489;51.404;5.474;2023-02-26T17:39:32;10.80;38.70
45785;DHT22;31489;51.404;5.474;2023-02-26T17:42:16;10.80;38.50
45785;DHT22;31489;51.404;5.474;2023-02-26T17:44:49;10.70;38.80
45785;DHT22;31489;51.404;5.474;2023-02-26T17:47:19;10.70;38.90
45785;DHT22;31489;51.404;5.474;2023-02-26T17:49:55;10.60;38.80
45785;DHT22;31489;51.404;5.474;2023-02-26T17:55:52;10.50;39.20
45785;DHT22;31489;51.404;5.474;2023-02-26T17:58:23;10.40;39.30
45785;DHT22;31489;51.404;5.474;2023-02-26T18:00:59;10.40;39.30
45785;DHT22;31489;51.404;5.474;2023-02-26T18:03:33;10.30;39.50
45785;DHT22;31489;51.404;5.474;2023-02-26T18:06:09;10.30;39.70
45785;DHT22;31489;51.404;5.474;2023-02-26T18:08:36;10.30;39.70
45785;DHT22;31489;51.404;5.474;2023-02-26T18:11:04;10.20;39.70
45785;DHT22;31489;51.404;5.474;2023-02-26T18:13:36;10.20;39.90
45785;DHT22;31489;51.404;5.474;2023-02-26T18:16:18;10.10;40.00
45785;DHT22;31489;51.404;5.474;2023-02-26T18:18:47;10.10;39.80
45785;DHT22;31489;51.404;5.474;2023-02-26T18:21:27;10.00;40.00
45785;DHT22;31489;51.404;5.474;2023-02-26T18:23:56;10.00;40.00
45785;DHT22;31489;51.404;5.474;2023-02-26T18:26:28;10.00;40.20
45785;DHT22;31489;51.404;5.474;2023-02-26T18:28:58;9.90;40.30
45785;DHT22;31489;51.404;5.474;2023-02-26T18:31:25;9.90;40.50
45785;DHT22;31489;51.404;5.474;2023-02-26T18:33:58;9.90;40.20
45785;DHT22;31489;51.404;5.474;2023-02-26T18:36:36;9.80;40.40
45785;DHT22;31489;51.404;5.474;2023-02-26T18:39:31;9.70;40.30
45785;DHT22;31489;51.404;5.474;2023-02-26T18:42:35;9.70;40.60
45785;DHT22;31489;51.404;5.474;2023-02-26T18:45:03;9.60;40.80
45785;DHT22;31489;51.404;5.474;2023-02-26T18:47:29;9.60;40.80
45785;DHT22;31489;51.404;5.474;2023-02-26T18:49:55;9.50;40.80
45785;DHT22;31489;51.404;5.474;2023-02-26T18:52:22;9.50;41.00
45785;DHT22;31489;51.404;5.474;2023-02-26T18:54:54;9.40;41.10
45785;DHT22;31489;51.404;5.474;2023-02-26T18:57:20;9.40;41.20
45785;DHT22;31489;51.404;5.474;2023-02-26T18:59:47;9.30;41.30
45785;DHT22;31489;51.404;5.474;2023-02-26T19:02:13;9.30;41.50
45785;DHT22;31489;51.404;5.474;2023-02-26T19:04:45;9.20;41.50